sensor_id;sensor_type;location;lat;lon;timestamp;P1;durP1;ratioP1;P2;durP2;ratioP2
11111;SDS011;5609;49.466;8.468;2023-03-08T00:01:25;7.57;;;6.10;;
11111;SDS011;5609;49.466;8.468;2023-03-08T00:03:52;8.17;;;6.00;;
11111;SDS011;5609;49.466;8.468;2023-03-08T00:06:20;7.30;;;6.17;;
11111;SDS011;5609;49.466;8.468;2023-03-08T00:08:48;8.50;;;6.40;;
11111;SDS011;5609;49.466;8.468;2023-03-08T00:11:15;9.10;;;6.43;;
11111;SDS011;5609;49.466;8.468;2023-03-08T00:13:42;7.37;;;6.13;;
11111;SDS011;5609;49.466;8.468;2023-03-08T00:16:11;6.70;;;6.00;;
11111;SDS011;5609;49.466;8.468;2023-03-08T00:18:38;7.00;;;6.17;;
11111;SDS011;5609;49.466;8.468;2023-03-08T00:21:06;8.13;;;6.33;;
11111;SDS011;5609;49.466;8.468;2023-03-08T00:23:34;7.47;;;6.00;;
11111;SDS011;5609;49.466;8.468;2023-03-08T00:26:01;6.93;;;6.23;;
11111;SDS011;5609;49.466;8.468;2023-03-08T00:28:28;8.60;;;6.93;;
11111;SDS011;5609;49.466;8.468;2023-03-08T00:30:56;7.43;;;6.40;;
11111;SDS011;5609;49.466;8.468;2023-03-08T00:33:24;6.97;;;6.27;;
11111;SDS011;5609;49.466;8.468;2023-03-08T00:35:58;7.30;;;6.07;;
11111;SDS011;5609;49.466;8.468;2023-03-08T00:38:26;7.60;;;6.10;;
11111;SDS011;5609;49.466;8.468;2023-03-08T00:40:53;7.53;;;6.63;;
11111;SDS011;5609;49.466;8.468;2023-03-08T00:43:20;7.43;;;6.60;;
11111;SDS011;5609;49.466;8.468;2023-03-08T00:45:47;7.80;;;6.40;;
11111;SDS011;5609;49.466;8.468;2023-03-08T00:48:14;7.13;;;6.07;;
11111;SDS011;5609;49.466;8.468;2023-03-08T00:50:42;7.87;;;6.43;;
11111;SDS011;5609;49.466;8.468;2023-03-08T00:53:09;6.97;;;6.27;;
11111;SDS011;5609;49.466;8.468;2023-03-08T00:55:36;7.80;;;6.23;;
11111;SDS011;5609;49.466;8.468;2023-03-08T00:58:03;9.63;;;6.93;;
11111;SDS011;5609;49.466;8.468;2023-03-08T01:00:30;8.23;;;6.67;;
11111;SDS011;5609;49.466;8.468;2023-03-08T01:02:57;7.03;;;6.30;;
11111;SDS011;5609;49.466;8.468;2023-03-08T01:05:24;8.10;;;6.63;;
11111;SDS011;5609;49.466;8.468;2023-03-08T01:07:52;8.17;;;7.00;;
11111;SDS011;5609;49.466;8.468;2023-03-08T01:10:19;7.93;;;6.53;;
11111;SDS011;5609;49.466;8.468;2023-03-08T01:12:45;8.37;;;6.93;;
11111;SDS011;5609;49.466;8.468;2023-03-08T01:15:12;7.63;;;6.50;;
11111;SDS011;5609;49.466;8.468;2023-03-08T01:17:39;7.07;;;6.37;;
11111;SDS011;5609;49.466;8.468;2023-03-08T01:20:06;8.27;;;6.57;;
11111;SDS011;5609;49.466;8.468;2023-03-08T01:22:34;8.60;;;7.23;;
11111;SDS011;5609;49.466;8.468;2023-03-08T01:25:02;9.60;;;6.90;;
11111;SDS011;5609;49.466;8.468;2023-03-08T01:27:29;9.30;;;7.20;;
11111;SDS011;5609;49.466;8.468;2023-03-08T01:29:56;9.57;;;7.10;;
11111;SDS011;5609;49.466;8.468;2023-03-08T01:32:24;7.70;;;6.90;;
11111;SDS011;5609;49.466;8.468;2023-03-08T01:34:51;8.13;;;6.70;;
11111;SDS011;5609;49.466;8.468;2023-03-08T01:37:18;7.63;;;6.53;;
11111;SDS011;5609;49.466;8.468;2023-03-08T01:39:45;8.50;;;7.30;;
11111;SDS011;5609;49.466;8.468;2023-03-08T01:42:13;9.73;;;7.40;;
11111;SDS011;5609;49.466;8.468;2023-03-08T01:44:50;7.83;;;6.80;;
11111;SDS011;5609;49.466;8.468;2023-03-08T01:47:19;7.67;;;6.87;;
11111;SDS011;5609;49.466;8.468;2023-03-08T01:49:47;9.07;;;7.10;;
11111;SDS011;5609;49.466;8.468;2023-03-08T01:52:15;8.53;;;6.83;;
11111;SDS011;5609;49.466;8.468;2023-03-08T01:54:47;8.83;;;6.80;;
11111;SDS011;5609;49.466;8.468;2023-03-08T01:57:18;7.97;;;6.47;;
11111;SDS011;5609;49.466;8.468;2023-03-08T01:59:48;9.60;;;6.93;;
11111;SDS011;5609;49.466;8.468;2023-03-08T02:02:20;9.13;;;6.73;;
11111;SDS011;5609;49.466;8.468;2023-03-08T02:04:49;8.37;;;6.73;;
11111;SDS011;5609;49.466;8.468;2023-03-08T02:07:15;8.03;;;6.60;;
11111;SDS011;5609;49.466;8.468;2023-03-08T02:09:42;8.27;;;6.30;;
11111;SDS011;5609;49.466;8.468;2023-03-08T02:12:10;9.10;;;6.93;;
11111;SDS011;5609;49.466;8.468;2023-03-08T02:14:39;7.97;;;7.17;;
11111;SDS011;5609;49.466;8.468;2023-03-08T02:17:07;7.77;;;6.50;;
11111;SDS011;5609;49.466;8.468;2023-03-08T02:19:38;7.80;;;6.97;;
11111;SDS011;5609;49.466;8.468;2023-03-08T02:22:10;8.90;;;7.47;;
11111;SDS011;5609;49.466;8.468;2023-03-08T02:24:42;8.33;;;6.73;;
11111;SDS011;5609;49.466;8.468;2023-03-08T02:27:10;8.13;;;7.17;;
11111;SDS011;5609;49.466;8.468;2023-03-08T02:29:39;9.20;;;6.70;;
11111;SDS011;5609;49.466;8.468;2023-03-08T02:32:06;8.53;;;7.00;;
11111;SDS011;5609;49.466;8.468;2023-03-08T02:34:33;8.73;;;7.07;;
11111;SDS011;5609;49.466;8.468;2023-03-08T02:37:01;8.17;;;6.60;;
11111;SDS011;5609;49.466;8.468;2023-03-08T02:39:27;7.67;;;6.83;;
11111;SDS011;5609;49.466;8.468;2023-03-08T02:41:55;8.93;;;6.93;;
11111;SDS011;5609;49.466;8.468;2023-03-08T02:44:22;8.07;;;6.93;;
11111;SDS011;5609;49.466;8.468;2023-03-08T02:46:49;8.13;;;6.83;;
11111;SDS011;5609;49.466;8.468;2023-03-08T02:49:16;8.07;;;7.00;;
11111;SDS011;5609;49.466;8.468;2023-03-08T02:51:43;8.37;;;6.90;;
11111;SDS011;5609;49.466;8.468;2023-03-08T02:54:10;8.60;;;7.00;;
11111;SDS011;5609;49.466;8.468;2023-03-08T02:56:36;8.97;;;6.70;;
11111;SDS011;5609;49.466;8.468;2023-03-08T02:59:04;7.90;;;6.93;;
11111;SDS011;5609;49.466;8.468;2023-03-08T03:01:31;7.83;;;6.37;;
11111;SDS011;5609;49.466;8.468;2023-03-08T03:03:58;8.03;;;6.80;;
11111;SDS011;5609;49.466;8.468;2023-03-08T03:06:24;8.60;;;6.77;;
11111;SDS011;5609;49.466;8.468;2023-03-08T03:08:51;7.43;;;6.43;;
11111;SDS011;5609;49.466;8.468;2023-03-08T03:11:19;8.47;;;7.00;;
11111;SDS011;5609;49.466;8.468;2023-03-08T03:13:52;7.53;;;6.73;;
11111;SDS011;5609;49.466;8.468;2023-03-08T03:16:21;8.73;;;6.90;;
11111;SDS011;5609;49.466;8.468;2023-03-08T03:18:47;7.73;;;6.83;;
11111;SDS011;5609;49.466;8.468;2023-03-08T03:21:14;7.30;;;6.47;;
11111;SDS011;5609;49.466;8.468;2023-03-08T03:23:41;9.57;;;7.10;;
11111;SDS011;5609;49.466;8.468;2023-03-08T03:26:08;8.47;;;6.80;;
11111;SDS011;5609;49.466;8.468;2023-03-08T03:28:36;8.43;;;6.70;;
11111;SDS011;5609;49.466;8.468;2023-03-08T03:31:05;10.20;;;6.90;;
11111;SDS011;5609;49.466;8.468;2023-03-08T03:33:33;8.23;;;6.70;;
11111;SDS011;5609;49.466;8.468;2023-03-08T03:36:00;8.43;;;6.97;;
11111;SDS011;5609;49.466;8.468;2023-03-08T03:38:27;8.33;;;6.60;;
11111;SDS011;5609;49.466;8.468;2023-03-08T03:40:59;9.43;;;7.00;;
11111;SDS011;5609;49.466;8.468;2023-03-08T03:43:26;8.43;;;6.90;;
11111;SDS011;5609;49.466;8.468;2023-03-08T03:45:54;7.83;;;6.67;;
11111;SDS011;5609;49.466;8.468;2023-03-08T03:48:22;9.20;;;7.40;;
11111;SDS011;5609;49.466;8.468;2023-03-08T03:50:53;7.73;;;6.70;;
11111;SDS011;5609;49.466;8.468;2023-03-08T03:53:20;8.90;;;7.40;;
11111;SDS011;5609;49.466;8.468;2023-03-08T03:55:47;8.47;;;6.63;;
11111;SDS011;5609;49.466;8.468;2023-03-08T03:58:14;8.67;;;6.80;;
11111;SDS011;5609;49.466;8.468;2023-03-08T04:00:41;8.00;;;6.90;;
11111;SDS011;5609;49.466;8.468;2023-03-08T04:03:08;8.67;;;7.00;;
11111;SDS011;5609;49.466;8.468;2023-03-08T04:05:35;9.70;;;7.60;;
11111;SDS011;5609;49.466;8.468;2023-03-08T04:08:03;9.17;;;7.77;;
11111;SDS011;5609;49.466;8.468;2023-03-08T04:10:30;8.70;;;7.27;;
11111;SDS011;5609;49.466;8.468;2023-03-08T04:12:57;9.53;;;7.67;;
11111;SDS011;5609;49.466;8.468;2023-03-08T04:15:23;8.40;;;6.93;;
11111;SDS011;5609;49.466;8.468;2023-03-08T04:17:50;8.73;;;7.20;;
11111;SDS011;5609;49.466;8.468;2023-03-08T04:20:17;10.07;;;7.50;;
11111;SDS011;5609;49.466;8.468;2023-03-08T04:22:44;8.07;;;7.27;;
11111;SDS011;5609;49.466;8.468;2023-03-08T04:25:12;8.60;;;7.10;;
11111;SDS011;5609;49.466;8.468;2023-03-08T04:27:39;9.73;;;7.67;;
11111;SDS011;5609;49.466;8.468;2023-03-08T04:30:06;10.50;;;7.73;;
11111;SDS011;5609;49.466;8.468;2023-03-08T04:32:33;10.87;;;8.03;;
11111;SDS011;5609;49.466;8.468;2023-03-08T04:35:00;10.63;;;8.13;;
11111;SDS011;5609;49.466;8.468;2023-03-08T04:37:27;12.20;;;8.00;;
11111;SDS011;5609;49.466;8.468;2023-03-08T04:39:54;9.93;;;7.67;;
11111;SDS011;5609;49.466;8.468;2023-03-08T04:42:22;10.67;;;8.23;;
11111;SDS011;5609;49.466;8.468;2023-03-08T04:44:49;8.83;;;7.80;;
11111;SDS011;5609;49.466;8.468;2023-03-08T04:47:16;10.50;;;8.50;;
11111;SDS011;5609;49.466;8.468;2023-03-08T04:49:43;11.13;;;8.57;;
11111;SDS011;5609;49.466;8.468;2023-03-08T04:52:09;11.93;;;8.83;;
11111;SDS011;5609;49.466;8.468;2023-03-08T04:54:36;9.70;;;8.13;;
11111;SDS011;5609;49.466;8.468;2023-03-08T04:57:03;10.80;;;8.30;;
11111;SDS011;5609;49.466;8.468;2023-03-08T04:59:31;11.03;;;8.90;;
11111;SDS011;5609;49.466;8.468;2023-03-08T05:01:58;12.00;;;9.00;;
11111;SDS011;5609;49.466;8.468;2023-03-08T05:04:25;10.33;;;8.80;;
11111;SDS011;5609;49.466;8.468;2023-03-08T05:06:51;12.70;;;9.30;;
11111;SDS011;5609;49.466;8.468;2023-03-08T05:09:18;10.77;;;8.50;;
11111;SDS011;5609;49.466;8.468;2023-03-08T05:11:45;11.17;;;9.33;;
11111;SDS011;5609;49.466;8.468;2023-03-08T05:14:11;12.50;;;9.03;;
11111;SDS011;5609;49.466;8.468;2023-03-08T05:16:39;11.07;;;8.87;;
11111;SDS011;5609;49.466;8.468;2023-03-08T05:19:06;12.63;;;9.60;;
11111;SDS011;5609;49.466;8.468;2023-03-08T05:21:33;10.67;;;8.97;;
11111;SDS011;5609;49.466;8.468;2023-03-08T05:23:59;13.23;;;10.43;;
11111;SDS011;5609;49.466;8.468;2023-03-08T05:26:26;10.70;;;9.27;;
11111;SDS011;5609;49.466;8.468;2023-03-08T05:28:53;12.30;;;9.87;;
11111;SDS011;5609;49.466;8.468;2023-03-08T05:31:20;12.80;;;9.87;;
11111;SDS011;5609;49.466;8.468;2023-03-08T05:33:49;11.60;;;9.60;;
11111;SDS011;5609;49.466;8.468;2023-03-08T05:36:17;12.53;;;9.27;;
11111;SDS011;5609;49.466;8.468;2023-03-08T05:38:45;12.73;;;9.67;;
11111;SDS011;5609;49.466;8.468;2023-03-08T05:41:12;12.27;;;9.63;;
11111;SDS011;5609;49.466;8.468;2023-03-08T05:43:41;12.53;;;10.13;;
11111;SDS011;5609;49.466;8.468;2023-03-08T05:46:09;15.77;;;10.17;;
11111;SDS011;5609;49.466;8.468;2023-03-08T05:48:37;12.77;;;9.97;;
11111;SDS011;5609;49.466;8.468;2023-03-08T05:51:06;12.70;;;9.93;;
11111;SDS011;5609;49.466;8.468;2023-03-08T05:53:34;11.93;;;9.40;;
11111;SDS011;5609;49.466;8.468;2023-03-08T05:56:08;12.90;;;9.80;;
11111;SDS011;5609;49.466;8.468;2023-03-08T05:58:36;11.00;;;9.47;;
11111;SDS011;5609;49.466;8.468;2023-03-08T06:01:09;12.33;;;9.67;;
11111;SDS011;5609;49.466;8.468;2023-03-08T06:03:37;12.80;;;10.23;;
11111;SDS011;5609;49.466;8.468;2023-03-08T06:06:05;12.73;;;10.13;;
11111;SDS011;5609;49.466;8.468;2023-03-08T06:08:32;12.30;;;9.03;;
11111;SDS011;5609;49.466;8.468;2023-03-08T06:10:59;13.13;;;9.37;;
11111;SDS011;5609;49.466;8.468;2023-03-08T06:13:26;12.97;;;9.67;;
11111;SDS011;5609;49.466;8.468;2023-03-08T06:15:53;12.80;;;9.93;;
11111;SDS011;5609;49.466;8.468;2023-03-08T06:18:21;11.33;;;9.30;;
11111;SDS011;5609;49.466;8.468;2023-03-08T06:20:55;12.13;;;9.60;;
11111;SDS011;5609;49.466;8.468;2023-03-08T06:23:28;11.77;;;9.60;;
11111;SDS011;5609;49.466;8.468;2023-03-08T06:25:55;10.30;;;9.20;;
11111;SDS011;5609;49.466;8.468;2023-03-08T06:28:23;11.87;;;9.47;;
11111;SDS011;5609;49.466;8.468;2023-03-08T06:30:51;11.70;;;9.57;;
11111;SDS011;5609;49.466;8.468;2023-03-08T06:33:18;12.83;;;9.83;;
11111;SDS011;5609;49.466;8.468;2023-03-08T06:35:54;12.50;;;9.50;;
11111;SDS011;5609;49.466;8.468;2023-03-08T06:38:21;11.10;;;9.17;;
11111;SDS011;5609;49.466;8.468;2023-03-08T06:40:49;10.10;;;8.70;;
11111;SDS011;5609;49.466;8.468;2023-03-08T06:43:16;11.53;;;9.13;;
11111;SDS011;5609;49.466;8.468;2023-03-08T06:45:43;9.73;;;8.70;;
11111;SDS011;5609;49.466;8.468;2023-03-08T06:48:10;11.23;;;8.43;;
11111;SDS011;5609;49.466;8.468;2023-03-08T06:50:37;13.60;;;9.90;;
11111;SDS011;5609;49.466;8.468;2023-03-08T06:53:03;10.67;;;9.07;;
11111;SDS011;5609;49.466;8.468;2023-03-08T06:55:30;10.67;;;9.00;;
11111;SDS011;5609;49.466;8.468;2023-03-08T06:58:00;12.37;;;9.20;;
11111;SDS011;5609;49.466;8.468;2023-03-08T07:00:28;11.00;;;9.20;;
11111;SDS011;5609;49.466;8.468;2023-03-08T07:02:55;10.70;;;8.70;;
11111;SDS011;5609;49.466;8.468;2023-03-08T07:05:22;10.80;;;9.33;;
11111;SDS011;5609;49.466;8.468;2023-03-08T07:07:48;10.63;;;8.97;;
11111;SDS011;5609;49.466;8.468;2023-03-08T07:12:43;12.23;;;8.43;;
11111;SDS011;5609;49.466;8.468;2023-03-08T07:15:14;10.57;;;8.43;;
11111;SDS011;5609;49.466;8.468;2023-03-08T07:17:43;12.90;;;9.17;;
11111;SDS011;5609;49.466;8.468;2023-03-08T07:20:11;10.87;;;8.63;;
11111;SDS011;5609;49.466;8.468;2023-03-08T07:22:39;11.40;;;8.40;;
11111;SDS011;5609;49.466;8.468;2023-03-08T07:25:08;12.13;;;8.87;;
11111;SDS011;5609;49.466;8.468;2023-03-08T07:27:36;10.77;;;9.60;;
11111;SDS011;5609;49.466;8.468;2023-03-08T07:30:02;11.30;;;9.07;;
11111;SDS011;5609;49.466;8.468;2023-03-08T07:32:31;11.37;;;9.20;;
11111;SDS011;5609;49.466;8.468;2023-03-08T07:34:58;12.27;;;8.90;;
11111;SDS011;5609;49.466;8.468;2023-03-08T07:37:25;12.00;;;9.53;;
11111;SDS011;5609;49.466;8.468;2023-03-08T07:39:51;14.37;;;9.80;;
11111;SDS011;5609;49.466;8.468;2023-03-08T07:42:18;12.37;;;9.97;;
11111;SDS011;5609;49.466;8.468;2023-03-08T07:44:45;12.67;;;10.33;;
11111;SDS011;5609;49.466;8.468;2023-03-08T07:47:12;12.83;;;10.13;;
11111;SDS011;5609;49.466;8.468;2023-03-08T07:49:40;12.90;;;10.77;;
11111;SDS011;5609;49.466;8.468;2023-03-08T07:52:06;12.47;;;10.33;;
11111;SDS011;5609;49.466;8.468;2023-03-08T07:54:33;13.70;;;10.13;;
11111;SDS011;5609;49.466;8.468;2023-03-08T07:57:00;13.07;;;10.13;;
11111;SDS011;5609;49.466;8.468;2023-03-08T07:59:27;12.47;;;10.20;;
11111;SDS011;5609;49.466;8.468;2023-03-08T08:01:53;13.40;;;10.40;;
11111;SDS011;5609;49.466;8.468;2023-03-08T08:04:20;13.77;;;10.77;;
11111;SDS011;5609;49.466;8.468;2023-03-08T08:06:48;13.63;;;11.03;;
11111;SDS011;5609;49.466;8.468;2023-03-08T08:09:15;12.93;;;9.93;;
11111;SDS011;5609;49.466;8.468;2023-03-08T08:11:42;12.67;;;10.83;;
11111;SDS011;5609;49.466;8.468;2023-03-08T08:14:09;14.07;;;11.70;;
11111;SDS011;5609;49.466;8.468;2023-03-08T08:16:35;15.90;;;11.87;;
11111;SDS011;5609;49.466;8.468;2023-03-08T08:19:02;14.67;;;11.73;;
11111;SDS011;5609;49.466;8.468;2023-03-08T08:21:29;15.47;;;11.80;;
11111;SDS011;5609;49.466;8.468;2023-03-08T08:23:57;14.60;;;11.77;;
11111;SDS011;5609;49.466;8.468;2023-03-08T08:26:25;17.83;;;12.60;;
11111;SDS011;5609;49.466;8.468;2023-03-08T08:28:52;15.93;;;13.13;;
11111;SDS011;5609;49.466;8.468;2023-03-08T08:31:20;16.40;;;13.50;;
11111;SDS011;5609;49.466;8.468;2023-03-08T08:33:49;16.57;;;12.90;;
11111;SDS011;5609;49.466;8.468;2023-03-08T08:36:16;18.07;;;13.97;;
11111;SDS011;5609;49.466;8.468;2023-03-08T08:38:45;17.50;;;13.57;;
11111;SDS011;5609;49.466;8.468;2023-03-08T08:41:14;18.87;;;14.37;;
11111;SDS011;5609;49.466;8.468;2023-03-08T08:43:43;16.30;;;13.83;;
11111;SDS011;5609;49.466;8.468;2023-03-08T08:46:10;18.30;;;13.60;;
11111;SDS011;5609;49.466;8.468;2023-03-08T08:48:37;16.80;;;13.43;;
11111;SDS011;5609;49.466;8.468;2023-03-08T08:51:04;18.97;;;14.20;;
11111;SDS011;5609;49.466;8.468;2023-03-08T08:53:33;17.47;;;14.37;;
11111;SDS011;5609;49.466;8.468;2023-03-08T08:56:08;16.87;;;13.83;;
11111;SDS011;5609;49.466;8.468;2023-03-08T08:58:37;16.97;;;13.47;;
11111;SDS011;5609;49.466;8.468;2023-03-08T09:01:11;17.70;;;13.97;;
11111;SDS011;5609;49.466;8.468;2023-03-08T09:03:39;16.87;;;13.90;;
11111;SDS011;5609;49.466;8.468;2023-03-08T09:06:06;15.70;;;12.70;;
11111;SDS011;5609;49.466;8.468;2023-03-08T09:08:33;17.50;;;13.23;;
11111;SDS011;5609;49.466;8.468;2023-03-08T09:11:03;15.17;;;12.40;;
11111;SDS011;5609;49.466;8.468;2023-03-08T09:13:31;15.50;;;12.83;;
11111;SDS011;5609;49.466;8.468;2023-03-08T09:15:59;14.97;;;12.33;;
11111;SDS011;5609;49.466;8.468;2023-03-08T09:18:26;15.90;;;12.73;;
11111;SDS011;5609;49.466;8.468;2023-03-08T09:20:53;18.70;;;13.37;;
11111;SDS011;5609;49.466;8.468;2023-03-08T09:23:20;15.47;;;12.27;;
11111;SDS011;5609;49.466;8.468;2023-03-08T09:25:53;14.60;;;12.13;;
11111;SDS011;5609;49.466;8.468;2023-03-08T09:28:21;15.43;;;11.80;;
11111;SDS011;5609;49.466;8.468;2023-03-08T09:30:48;14.87;;;11.93;;
11111;SDS011;5609;49.466;8.468;2023-03-08T09:33:16;14.53;;;11.63;;
11111;SDS011;5609;49.466;8.468;2023-03-08T09:35:43;13.93;;;12.20;;
11111;SDS011;5609;49.466;8.468;2023-03-08T09:38:10;13.37;;;11.93;;
11111;SDS011;5609;49.466;8.468;2023-03-08T09:40:38;15.07;;;11.97;;
11111;SDS011;5609;49.466;8.468;2023-03-08T09:43:11;14.07;;;11.93;;
11111;SDS011;5609;49.466;8.468;2023-03-08T09:45:50;13.33;;;11.57;;
11111;SDS011;5609;49.466;8.468;2023-03-08T09:48:21;17.53;;;13.90;;
11111;SDS011;5609;49.466;8.468;2023-03-08T09:50:53;12.87;;;11.27;;
11111;SDS011;5609;49.466;8.468;2023-03-08T09:53:25;14.00;;;12.03;;
11111;SDS011;5609;49.466;8.468;2023-03-08T09:55:54;13.10;;;11.00;;
11111;SDS011;5609;49.466;8.468;2023-03-08T09:58:32;12.37;;;10.63;;
11111;SDS011;5609;49.466;8.468;2023-03-08T10:01:04;12.83;;;10.83;;
11111;SDS011;5609;49.466;8.468;2023-03-08T10:03:57;14.20;;;11.63;;
11111;SDS011;5609;49.466;8.468;2023-03-08T10:06:35;13.57;;;11.03;;
11111;SDS011;5609;49.466;8.468;2023-03-08T10:09:09;13.27;;;11.20;;
11111;SDS011;5609;49.466;8.468;2023-03-08T10:11:48;14.27;;;11.63;;
11111;SDS011;5609;49.466;8.468;2023-03-08T10:14:25;15.53;;;11.30;;
11111;SDS011;5609;49.466;8.468;2023-03-08T10:16:56;14.20;;;12.17;;
11111;SDS011;5609;49.466;8.468;2023-03-08T10:19:29;13.37;;;11.23;;
11111;SDS011;5609;49.466;8.468;2023-03-08T10:21:59;13.63;;;11.30;;
11111;SDS011;5609;49.466;8.468;2023-03-08T10:24:41;14.23;;;11.17;;
11111;SDS011;5609;49.466;8.468;2023-03-08T10:27:14;14.20;;;11.37;;
11111;SDS011;5609;49.466;8.468;2023-03-08T10:29:48;13.23;;;11.37;;
11111;SDS011;5609;49.466;8.468;2023-03-08T10:32:15;14.60;;;11.50;;
11111;SDS011;5609;49.466;8.468;2023-03-08T10:34:44;13.07;;;10.87;;
11111;SDS011;5609;49.466;8.468;2023-03-08T10:37:12;13.73;;;11.27;;
11111;SDS011;5609;49.466;8.468;2023-03-08T10:39:46;13.50;;;11.43;;
11111;SDS011;5609;49.466;8.468;2023-03-08T10:42:17;15.67;;;11.93;;
11111;SDS011;5609;49.466;8.468;2023-03-08T10:44:46;15.93;;;12.80;;
11111;SDS011;5609;49.466;8.468;2023-03-08T10:47:20;17.73;;;13.77;;
11111;SDS011;5609;49.466;8.468;2023-03-08T10:50:01;16.07;;;13.07;;
11111;SDS011;5609;49.466;8.468;2023-03-08T10:52:30;15.47;;;12.47;;
11111;SDS011;5609;49.466;8.468;2023-03-08T10:55:00;15.67;;;12.53;;
11111;SDS011;5609;49.466;8.468;2023-03-08T10:57:29;14.30;;;12.13;;
11111;SDS011;5609;49.466;8.468;2023-03-08T10:59:57;14.63;;;11.67;;
11111;SDS011;5609;49.466;8.468;2023-03-08T11:02:29;15.50;;;12.60;;
11111;SDS011;5609;49.466;8.468;2023-03-08T11:04:58;14.17;;;12.27;;
11111;SDS011;5609;49.466;8.468;2023-03-08T11:07:26;18.13;;;12.50;;
11111;SDS011;5609;49.466;8.468;2023-03-08T11:10:14;14.33;;;12.20;;
11111;SDS011;5609;49.466;8.468;2023-03-08T11:12:43;14.80;;;12.10;;
11111;SDS011;5609;49.466;8.468;2023-03-08T11:15:13;13.73;;;12.20;;
11111;SDS011;5609;49.466;8.468;2023-03-08T11:17:42;15.23;;;12.70;;
11111;SDS011;5609;49.466;8.468;2023-03-08T11:20:19;15.27;;;12.17;;
11111;SDS011;5609;49.466;8.468;2023-03-08T11:22:52;14.40;;;12.00;;
11111;SDS011;5609;49.466;8.468;2023-03-08T11:25:32;15.40;;;12.53;;
11111;SDS011;5609;49.466;8.468;2023-03-08T11:28:11;18.00;;;12.53;;
11111;SDS011;5609;49.466;8.468;2023-03-08T11:30:52;13.77;;;12.27;;
11111;SDS011;5609;49.466;8.468;2023-03-08T11:33:33;14.77;;;12.10;;
11111;SDS011;5609;49.466;8.468;2023-03-08T11:36:13;14.03;;;12.37;;
11111;SDS011;5609;49.466;8.468;2023-03-08T11:38:47;15.37;;;12.23;;
11111;SDS011;5609;49.466;8.468;2023-03-08T11:41:23;14.27;;;12.47;;
11111;SDS011;5609;49.466;8.468;2023-03-08T11:46:54;14.80;;;12.17;;
11111;SDS011;5609;49.466;8.468;2023-03-08T11:49:36;17.03;;;12.93;;
11111;SDS011;5609;49.466;8.468;2023-03-08T11:52:16;14.60;;;12.43;;
11111;SDS011;5609;49.466;8.468;2023-03-08T11:54:54;14.80;;;12.80;;
11111;SDS011;5609;49.466;8.468;2023-03-08T11:57:30;15.40;;;13.50;;
11111;SDS011;5609;49.466;8.468;2023-03-08T12:00:03;14.73;;;12.97;;
11111;SDS011;5609;49.466;8.468;2023-03-08T12:02:39;14.60;;;12.47;;
11111;SDS011;5609;49.466;8.468;2023-03-08T12:05:11;14.97;;;13.37;;
11111;SDS011;5609;49.466;8.468;2023-03-08T12:07:44;14.60;;;12.50;;
11111;SDS011;5609;49.466;8.468;2023-03-08T12:10:17;14.43;;;12.37;;
11111;SDS011;5609;49.466;8.468;2023-03-08T12:12:47;12.93;;;11.53;;
11111;SDS011;5609;49.466;8.468;2023-03-08T12:15:20;12.90;;;11.60;;
11111;SDS011;5609;49.466;8.468;2023-03-08T12:17:53;13.73;;;12.30;;
11111;SDS011;5609;49.466;8.468;2023-03-08T12:20:24;13.97;;;12.40;;
11111;SDS011;5609;49.466;8.468;2023-03-08T12:23:02;13.70;;;12.20;;
11111;SDS011;5609;49.466;8.468;2023-03-08T12:25:37;12.73;;;11.23;;
11111;SDS011;5609;49.466;8.468;2023-03-08T12:28:08;13.30;;;11.90;;
11111;SDS011;5609;49.466;8.468;2023-03-08T12:30:43;13.47;;;11.30;;
11111;SDS011;5609;49.466;8.468;2023-03-08T12:33:19;12.90;;;11.50;;
11111;SDS011;5609;49.466;8.468;2023-03-08T12:35:49;13.93;;;11.73;;
11111;SDS011;5609;49.466;8.468;2023-03-08T12:38:29;11.53;;;10.33;;
11111;SDS011;5609;49.466;8.468;2023-03-08T12:40:58;12.83;;;10.70;;
11111;SDS011;5609;49.466;8.468;2023-03-08T12:43:29;12.37;;;11.07;;
11111;SDS011;5609;49.466;8.468;2023-03-08T12:46:01;11.53;;;10.37;;
11111;SDS011;5609;49.466;8.468;2023-03-08T12:48:29;11.60;;;10.43;;
11111;SDS011;5609;49.466;8.468;2023-03-08T12:51:03;11.30;;;10.20;;
11111;SDS011;5609;49.466;8.468;2023-03-08T12:53:36;11.70;;;10.50;;
11111;SDS011;5609;49.466;8.468;2023-03-08T12:56:19;12.10;;;10.80;;
11111;SDS011;5609;49.466;8.468;2023-03-08T12:58:50;12.17;;;10.87;;
11111;SDS011;5609;49.466;8.468;2023-03-08T13:01:22;14.40;;;11.60;;
11111;SDS011;5609;49.466;8.468;2023-03-08T13:03:54;12.03;;;10.77;;
11111;SDS011;5609;49.466;8.468;2023-03-08T13:09:26;13.50;;;10.90;;
11111;SDS011;5609;49.466;8.468;2023-03-08T13:11:57;11.33;;;10.00;;
11111;SDS011;5609;49.466;8.468;2023-03-08T13:14:37;11.63;;;10.10;;
11111;SDS011;5609;49.466;8.468;2023-03-08T13:20:08;11.23;;;9.97;;
11111;SDS011;5609;49.466;8.468;2023-03-08T13:22:41;12.43;;;10.20;;
11111;SDS011;5609;49.466;8.468;2023-03-08T13:25:19;10.57;;;9.47;;
11111;SDS011;5609;49.466;8.468;2023-03-08T13:27:57;10.30;;;9.17;;
11111;SDS011;5609;49.466;8.468;2023-03-08T13:30:28;10.23;;;8.20;;
11111;SDS011;5609;49.466;8.468;2023-03-08T13:32:58;8.73;;;7.83;;
11111;SDS011;5609;49.466;8.468;2023-03-08T13:35:26;8.80;;;7.90;;
11111;SDS011;5609;49.466;8.468;2023-03-08T13:37:53;8.63;;;7.73;;
11111;SDS011;5609;49.466;8.468;2023-03-08T13:40:24;8.93;;;8.03;;
11111;SDS011;5609;49.466;8.468;2023-03-08T13:42:52;8.40;;;7.00;;
11111;SDS011;5609;49.466;8.468;2023-03-08T13:45:20;7.13;;;6.43;;
11111;SDS011;5609;49.466;8.468;2023-03-08T13:47:47;7.20;;;6.40;;
11111;SDS011;5609;49.466;8.468;2023-03-08T13:50:18;5.87;;;5.13;;
11111;SDS011;5609;49.466;8.468;2023-03-08T13:52:48;4.93;;;4.43;;
11111;SDS011;5609;49.466;8.468;2023-03-08T13:55:17;4.20;;;3.80;;
11111;SDS011;5609;49.466;8.468;2023-03-08T13:57:48;4.63;;;3.63;;
11111;SDS011;5609;49.466;8.468;2023-03-08T14:00:22;3.97;;;3.43;;
11111;SDS011;5609;49.466;8.468;2023-03-08T14:02:52;2.90;;;2.70;;
11111;SDS011;5609;49.466;8.468;2023-03-08T14:05:19;3.53;;;3.00;;
11111;SDS011;5609;49.466;8.468;2023-03-08T14:07:57;4.23;;;3.00;;
11111;SDS011;5609;49.466;8.468;2023-03-08T14:10:28;3.13;;;2.60;;
11111;SDS011;5609;49.466;8.468;2023-03-08T14:13:12;3.03;;;2.67;;
11111;SDS011;5609;49.466;8.468;2023-03-08T14:15:46;3.00;;;2.53;;
11111;SDS011;5609;49.466;8.468;2023-03-08T14:18:19;2.83;;;2.30;;
11111;SDS011;5609;49.466;8.468;2023-03-08T14:20:58;3.23;;;2.17;;
11111;SDS011;5609;49.466;8.468;2023-03-08T14:23:25;2.57;;;2.20;;
11111;SDS011;5609;49.466;8.468;2023-03-08T14:25:56;3.10;;;2.30;;
11111;SDS011;5609;49.466;8.468;2023-03-08T14:31:20;2.00;;;1.80;;
11111;SDS011;5609;49.466;8.468;2023-03-08T14:33:54;2.17;;;1.50;;
11111;SDS011;5609;49.466;8.468;2023-03-08T14:36:22;2.07;;;1.60;;
11111;SDS011;5609;49.466;8.468;2023-03-08T14:38:50;2.63;;;1.57;;
11111;SDS011;5609;49.466;8.468;2023-03-08T14:41:17;2.00;;;1.77;;
11111;SDS011;5609;49.466;8.468;2023-03-08T14:43:54;3.43;;;1.50;;
11111;SDS011;5609;49.466;8.468;2023-03-08T14:46:22;1.93;;;1.70;;
11111;SDS011;5609;49.466;8.468;2023-03-08T14:48:55;2.30;;;1.60;;
11111;SDS011;5609;49.466;8.468;2023-03-08T14:51:24;1.93;;;1.60;;
11111;SDS011;5609;49.466;8.468;2023-03-08T14:53:57;1.30;;;1.20;;
11111;SDS011;5609;49.466;8.468;2023-03-08T14:56:25;1.60;;;1.50;;
11111;SDS011;5609;49.466;8.468;2023-03-08T14:58:54;2.40;;;1.50;;
11111;SDS011;5609;49.466;8.468;2023-03-08T15:01:26;2.40;;;1.50;;
11111;SDS011;5609;49.466;8.468;2023-03-08T15:03:54;1.60;;;1.50;;
11111;SDS011;5609;49.466;8.468;2023-03-08T15:06:24;1.93;;;1.70;;
11111;SDS011;5609;49.466;8.468;2023-03-08T15:08:53;1.27;;;1.20;;
11111;SDS011;5609;49.466;8.468;2023-03-08T15:11:20;2.17;;;1.60;;
11111;SDS011;5609;49.466;8.468;2023-03-08T15:13:47;1.70;;;1.60;;
11111;SDS011;5609;49.466;8.468;2023-03-08T15:16:14;2.03;;;1.70;;